sensor_id;sensor_type;location;lat;lon;timestamp;pressure;altitude;pressure_sealevel;temperature;humidity
75221;BME280;63802;53.232;6.570;2023-09-08T00:02:27;101920.84;;;19.05;100.00
75221;BME280;63802;53.232;6.570;2023-09-08T00:04:53;101917.31;;;18.98;100.00
75221;BME280;63802;53.232;6.570;2023-09-08T00:07:19;101913.34;;;18.92;100.00
75221;BME280;63802;53.232;6.570;2023-09-08T00:09:45;101899.09;;;18.86;100.00
75221;BME280;63802;53.232;6.570;2023-09-08T00:12:10;101911.75;;;18.87;100.00
75221;BME280;63802;53.232;6.570;2023-09-08T00:14:35;101895.53;;;18.82;100.00
75221;BME280;63802;53.232;6.570;2023-09-08T00:17:01;101902.63;;;18.80;100.00
75221;BME280;63802;53.232;6.570;2023-09-08T00:19:27;101906.59;;;18.79;100.00
75221;BME280;63802;53.232;6.570;2023-09-08T00:21:52;101907.75;;;18.74;100.00
75221;BME280;63802;53.232;6.570;2023-09-08T00:24:18;101898.66;;;18.70;100.00
75221;BME280;63802;53.232;6.570;2023-09-08T00:26:43;101893.53;;;18.61;100.00
75221;BME280;63802;53.232;6.570;2023-09-08T00:29:09;101904.19;;;18.63;100.00
75221;BME280;63802;53.232;6.570;2023-09-08T00:31:34;101901.00;;;18.64;100.00
75221;BME280;63802;53.232;6.570;2023-09-08T00:34:00;101898.66;;;18.63;100.00
75221;BME280;63802;53.232;6.570;2023-09-08T00:36:25;101889.94;;;18.57;100.00
75221;BME280;63802;53.232;6.570;2023-09-08T00:38:51;101904.97;;;18.63;100.00
75221;BME280;63802;53.232;6.570;2023-09-08T00:41:16;101899.84;;;18.58;100.00
75221;BME280;63802;53.232;6.570;2023-09-08T00:43:41;101896.25;;;18.47;100.00
75221;BME280;63802;53.232;6.570;2023-09-08T00:46:07;101891.91;;;18.46;100.00
75221;BME280;63802;53.232;6.570;2023-09-08T00:48:34;101883.53;;;18.32;100.00
75221;BME280;63802;53.232;6.570;2023-09-08T00:51:00;101892.22;;;18.34;100.00
75221;BME280;63802;53.232;6.570;2023-09-08T00:53:26;101891.41;;;18.30;100.00
75221;BME280;63802;53.232;6.570;2023-09-08T00:55:51;101884.28;;;18.26;100.00
75221;BME280;63802;53.232;6.570;2023-09-08T00:58:17;101883.47;;;18.22;100.00
75221;BME280;63802;53.232;6.570;2023-09-08T01:00:43;101885.88;;;18.23;100.00
75221;BME280;63802;53.232;6.570;2023-09-08T01:03:11;101885.03;;;18.19;100.00
75221;BME280;63802;53.232;6.570;2023-09-08T01:05:36;101894.53;;;18.18;100.00
75221;BME280;63802;53.232;6.570;2023-09-08T01:08:01;101867.59;;;18.04;100.00
75221;BME280;63802;53.232;6.570;2023-09-08T01:10:27;101881.44;;;18.08;100.00
75221;BME280;63802;53.232;6.570;2023-09-08T01:12:53;101867.22;;;18.06;100.00
75221;BME280;63802;53.232;6.570;2023-09-08T01:15:18;101882.25;;;18.08;100.00
75221;BME280;63802;53.232;6.570;2023-09-08T01:17:44;101878.28;;;18.06;100.00
75221;BME280;63802;53.232;6.570;2023-09-08T01:20:17;101876.28;;;18.03;100.00
75221;BME280;63802;53.232;6.570;2023-09-08T01:25:49;101882.59;;;18.03;100.00
75221;BME280;63802;53.232;6.570;2023-09-08T01:28:16;101884.16;;;18.01;100.00
75221;BME280;63802;53.232;6.570;2023-09-08T01:30:43;101880.63;;;17.97;100.00
75221;BME280;63802;53.232;6.570;2023-09-08T01:33:08;101878.59;;;17.90;100.00
75221;BME280;63802;53.232;6.570;2023-09-08T01:35:34;101878.63;;;17.94;100.00
75221;BME280;63802;53.232;6.570;2023-09-08T01:38:00;101880.97;;;17.92;100.00
75221;BME280;63802;53.232;6.570;2023-09-08T01:40:25;101883.34;;;17.90;100.00
75221;BME280;63802;53.232;6.570;2023-09-08T01:42:51;101871.41;;;17.79;100.00
75221;BME280;63802;53.232;6.570;2023-09-08T01:45:16;101857.97;;;17.74;100.00
75221;BME280;63802;53.232;6.570;2023-09-08T01:47:42;101883.28;;;17.83;100.00
75221;BME280;63802;53.232;6.570;2023-09-08T01:50:07;101876.94;;;17.79;100.00
75221;BME280;63802;53.232;6.570;2023-09-08T01:52:33;101876.13;;;17.75;100.00
75221;BME280;63802;53.232;6.570;2023-09-08T01:54:59;101874.91;;;17.69;100.00
75221;BME280;63802;53.232;6.570;2023-09-08T01:57:24;101861.00;;;17.55;100.00
75221;BME280;63802;53.232;6.570;2023-09-08T01:59:49;101860.13;;;17.47;100.00
75221;BME280;63802;53.232;6.570;2023-09-08T02:02:15;101868.13;;;17.56;100.00
75221;BME280;63802;53.232;6.570;2023-09-08T02:04:40;101864.88;;;17.47;100.00
75221;BME280;63802;53.232;6.570;2023-09-08T02:07:06;101864.53;;;17.52;100.00
75221;BME280;63802;53.232;6.570;2023-09-08T02:09:35;101859.44;;;17.54;100.00
75221;BME280;63802;53.232;6.570;2023-09-08T02:12:02;101857.09;;;17.56;100.00
75221;BME280;63802;53.232;6.570;2023-09-08T02:14:27;101863.69;;;17.48;100.00
75221;BME280;63802;53.232;6.570;2023-09-08T02:16:56;101868.81;;;17.46;100.00
75221;BME280;63802;53.232;6.570;2023-09-08T02:19:22;101853.00;;;17.39;100.00
75221;BME280;63802;53.232;6.570;2023-09-08T02:21:48;101860.09;;;17.36;100.00
75221;BME280;63802;53.232;6.570;2023-09-08T02:24:13;101854.97;;;17.38;100.00
75221;BME280;63802;53.232;6.570;2023-09-08T02:26:39;101858.88;;;17.37;100.00
75221;BME280;63802;53.232;6.570;2023-09-08T02:29:04;101837.56;;;17.27;100.00
75221;BME280;63802;53.232;6.570;2023-09-08T02:31:30;101853.38;;;17.34;100.00
75221;BME280;63802;53.232;6.570;2023-09-08T02:33:56;101856.47;;;17.32;100.00
75221;BME280;63802;53.232;6.570;2023-09-08T02:36:21;101856.06;;;17.30;100.00
75221;BME280;63802;53.232;6.570;2023-09-08T02:38:54;101849.00;;;17.29;100.00
75221;BME280;63802;53.232;6.570;2023-09-08T02:41:20;101846.94;;;17.23;100.00
75221;BME280;63802;53.232;6.570;2023-09-08T02:43:46;101848.09;;;17.18;100.00
75221;BME280;63802;53.232;6.570;2023-09-08T02:46:12;101851.25;;;17.20;100.00
75221;BME280;63802;53.232;6.570;2023-09-08T02:48:37;101837.41;;;17.13;100.00
75221;BME280;63802;53.232;6.570;2023-09-08T02:51:04;101825.88;;;16.97;100.00
75221;BME280;63802;53.232;6.570;2023-09-08T02:53:30;101843.31;;;17.12;100.00
75221;BME280;63802;53.232;6.570;2023-09-08T02:55:56;101833.78;;;17.02;100.00
75221;BME280;63802;53.232;6.570;2023-09-08T02:58:22;101841.72;;;17.07;100.00
75221;BME280;63802;53.232;6.570;2023-09-08T03:00:48;101841.72;;;17.07;100.00
75221;BME280;63802;53.232;6.570;2023-09-08T03:03:13;101848.00;;;17.04;100.00
75221;BME280;63802;53.232;6.570;2023-09-08T03:05:38;101834.53;;;16.96;100.00
75221;BME280;63802;53.232;6.570;2023-09-08T03:08:04;101842.47;;;17.04;100.00
75221;BME280;63802;53.232;6.570;2023-09-08T03:10:30;101842.47;;;17.04;100.00
75221;BME280;63802;53.232;6.570;2023-09-08T03:12:59;101837.28;;;16.96;100.00
75221;BME280;63802;53.232;6.570;2023-09-08T03:15:25;101826.56;;;16.87;100.00
75221;BME280;63802;53.232;6.570;2023-09-08T03:17:56;101836.88;;;16.94;100.00
75221;BME280;63802;53.232;6.570;2023-09-08T03:20:24;101829.31;;;16.87;100.00
75221;BME280;63802;53.232;6.570;2023-09-08T03:22:49;101828.91;;;16.85;100.00
75221;BME280;63802;53.232;6.570;2023-09-08T03:25:15;101824.19;;;16.86;100.00
75221;BME280;63802;53.232;6.570;2023-09-08T03:27:40;101824.59;;;16.84;100.00
75221;BME280;63802;53.232;6.570;2023-09-08T03:30:06;101819.41;;;16.79;100.00
75221;BME280;63802;53.232;6.570;2023-09-08T03:32:33;101826.44;;;16.73;100.00
75221;BME280;63802;53.232;6.570;2023-09-08T03:34:58;101819.34;;;16.72;100.00
75221;BME280;63802;53.232;6.570;2023-09-08T03:37:24;101817.75;;;16.67;100.00
75221;BME280;63802;53.232;6.570;2023-09-08T03:39:51;101814.94;;;16.64;100.00
75221;BME280;63802;53.232;6.570;2023-09-08T03:42:17;101810.19;;;16.61;100.00
75221;BME280;63802;53.232;6.570;2023-09-08T03:44:42;101810.56;;;16.59;100.00
75221;BME280;63802;53.232;6.570;2023-09-08T03:47:08;101805.31;;;16.51;100.00
75221;BME280;63802;53.232;6.570;2023-09-08T03:49:33;101818.31;;;16.50;100.00
75221;BME280;63802;53.232;6.570;2023-09-08T03:51:58;101816.34;;;16.51;100.00
75221;BME280;63802;53.232;6.570;2023-09-08T03:54:24;101815.94;;;16.49;100.00
75221;BME280;63802;53.232;6.570;2023-09-08T03:56:49;101807.25;;;16.47;100.00
75221;BME280;63802;53.232;6.570;2023-09-08T03:59:15;101811.94;;;16.43;100.00
75221;BME280;63802;53.232;6.570;2023-09-08T04:01:40;101818.59;;;16.42;100.00
75221;BME280;63802;53.232;6.570;2023-09-08T04:04:06;101815.03;;;16.38;100.00
75221;BME280;63802;53.232;6.570;2023-09-08T04:06:31;101811.03;;;16.32;100.00
75221;BME280;63802;53.232;6.570;2023-09-08T04:08:56;101815.78;;;16.35;100.00
75221;BME280;63802;53.232;6.570;2023-09-08T04:11:22;101816.13;;;16.30;100.00
75221;BME280;63802;53.232;6.570;2023-09-08T04:13:47;101820.75;;;16.22;100.00
75221;BME280;63802;53.232;6.570;2023-09-08T04:16:13;101817.97;;;16.19;100.00
75221;BME280;63802;53.232;6.570;2023-09-08T04:18:38;101814.81;;;16.17;100.00
75221;BME280;63802;53.232;6.570;2023-09-08T04:21:06;101814.81;;;16.17;100.00
75221;BME280;63802;53.232;6.570;2023-09-08T04:23:32;101806.88;;;16.12;100.00
75221;BME280;63802;53.232;6.570;2023-09-08T04:25:57;101809.97;;;16.06;100.00
75221;BME280;63802;53.232;6.570;2023-09-08T04:28:23;101811.59;;;16.11;100.00
75221;BME280;63802;53.232;6.570;2023-09-08T04:30:49;101811.56;;;16.07;100.00
75221;BME280;63802;53.232;6.570;2023-09-08T04:33:14;101809.53;;;16.04;100.00
75221;BME280;63802;53.232;6.570;2023-09-08T04:35:40;101809.91;;;16.03;100.00
75221;BME280;63802;53.232;6.570;2023-09-08T04:38:05;101794.06;;;15.93;100.00
75221;BME280;63802;53.232;6.570;2023-09-08T04:40:31;101806.31;;;15.99;100.00
75221;BME280;63802;53.232;6.570;2023-09-08T04:42:56;101807.53;;;16.01;100.00
75221;BME280;63802;53.232;6.570;2023-09-08T04:45:21;101803.19;;;16.00;100.00
75221;BME280;63802;53.232;6.570;2023-09-08T04:47:47;101801.22;;;16.01;100.00
75221;BME280;63802;53.232;6.570;2023-09-08T04:50:12;101795.78;;;16.04;100.00
75221;BME280;63802;53.232;6.570;2023-09-08T04:52:38;101793.34;;;15.99;100.00
75221;BME280;63802;53.232;6.570;2023-09-08T04:55:03;101809.88;;;15.99;100.00
75221;BME280;63802;53.232;6.570;2023-09-08T04:57:29;101803.56;;;15.99;100.00
75221;BME280;63802;53.232;6.570;2023-09-08T04:59:55;101802.81;;;16.02;100.00
75221;BME280;63802;53.232;6.570;2023-09-08T05:02:20;101795.69;;;15.97;100.00
75221;BME280;63802;53.232;6.570;2023-09-08T05:04:46;101796.91;;;16.00;100.00
75221;BME280;63802;53.232;6.570;2023-09-08T05:07:12;101797.69;;;16.00;100.00
75221;BME280;63802;53.232;6.570;2023-09-08T05:09:38;101795.28;;;15.95;100.00
75221;BME280;63802;53.232;6.570;2023-09-08T05:12:04;101800.00;;;15.95;100.00
75221;BME280;63802;53.232;6.570;2023-09-08T05:14:29;101793.28;;;15.92;100.00
75221;BME280;63802;53.232;6.570;2023-09-08T05:16:55;101805.13;;;15.96;100.00
75221;BME280;63802;53.232;6.570;2023-09-08T05:19:21;101802.00;;;15.98;100.00
75221;BME280;63802;53.232;6.570;2023-09-08T05:21:50;101801.19;;;15.97;100.00
75221;BME280;63802;53.232;6.570;2023-09-08T05:24:15;101805.59;;;16.05;100.00
75221;BME280;63802;53.232;6.570;2023-09-08T05:26:41;101802.84;;;16.05;100.00
75221;BME280;63802;53.232;6.570;2023-09-08T05:29:06;101805.28;;;16.10;100.00
75221;BME280;63802;53.232;6.570;2023-09-08T05:31:32;101801.38;;;16.12;100.00
75221;BME280;63802;53.232;6.570;2023-09-08T05:33:57;101807.28;;;16.14;100.00
75221;BME280;63802;53.232;6.570;2023-09-08T05:36:23;101794.25;;;16.10;100.00
75221;BME280;63802;53.232;6.570;2023-09-08T05:38:48;101805.41;;;16.21;100.00
75221;BME280;63802;53.232;6.570;2023-09-08T05:41:14;101806.22;;;16.25;100.00
75221;BME280;63802;53.232;6.570;2023-09-08T05:43:39;101806.28;;;16.29;100.00
75221;BME280;63802;53.232;6.570;2023-09-08T05:46:05;101803.19;;;16.34;100.00
75221;BME280;63802;53.232;6.570;2023-09-08T05:48:31;101806.34;;;16.36;100.00
75221;BME280;63802;53.232;6.570;2023-09-08T05:50:56;101804.44;;;16.40;100.00
75221;BME280;63802;53.232;6.570;2023-09-08T05:53:22;101804.44;;;16.40;100.00
75221;BME280;63802;53.232;6.570;2023-09-08T05:55:47;101809.69;;;16.52;100.00
75221;BME280;63802;53.232;6.570;2023-09-08T05:58:12;101805.00;;;16.56;100.00
75221;BME280;63802;53.232;6.570;2023-09-08T06:00:38;101800.34;;;16.60;100.00
75221;BME280;63802;53.232;6.570;2023-09-08T06:03:03;101799.59;;;16.66;100.00
75221;BME280;63802;53.232;6.570;2023-09-08T06:05:29;101804.72;;;16.68;100.00
75221;BME280;63802;53.232;6.570;2023-09-08T06:07:54;101807.59;;;16.82;100.00
75221;BME280;63802;53.232;6.570;2023-09-08T06:10:20;101801.84;;;16.98;100.00
75221;BME280;63802;53.232;6.570;2023-09-08T06:12:45;101804.69;;;17.08;100.00
75221;BME280;63802;53.232;6.570;2023-09-08T06:15:10;101813.09;;;17.26;100.00
75221;BME280;63802;53.232;6.570;2023-09-08T06:17:36;101809.56;;;17.32;100.00
75221;BME280;63802;53.232;6.570;2023-09-08T06:20:02;101803.69;;;17.37;100.00
75221;BME280;63802;53.232;6.570;2023-09-08T06:22:27;101814.50;;;17.57;100.00
75221;BME280;63802;53.232;6.570;2023-09-08T06:24:53;101809.00;;;17.64;100.00
75221;BME280;63802;53.232;6.570;2023-09-08T06:27:18;101811.44;;;17.76;100.00
75221;BME280;63802;53.232;6.570;2023-09-08T06:29:44;101820.97;;;17.89;100.00
75221;BME280;63802;53.232;6.570;2023-09-08T06:32:10;101810.72;;;17.93;100.00
75221;BME280;63802;53.232;6.570;2023-09-08T06:34:36;101826.97;;;18.12;100.00
75221;BME280;63802;53.232;6.570;2023-09-08T06:37:01;101826.63;;;18.24;100.00
75221;BME280;63802;53.232;6.570;2023-09-08T06:39:27;101829.84;;;18.37;100.00
75221;BME280;63802;53.232;6.570;2023-09-08T06:41:52;101835.03;;;18.52;100.00
75221;BME280;63802;53.232;6.570;2023-09-08T06:44:20;101833.88;;;18.64;100.00
75221;BME280;63802;53.232;6.570;2023-09-08T06:46:45;101833.50;;;18.80;100.00
75221;BME280;63802;53.232;6.570;2023-09-08T06:49:10;101835.47;;;18.93;100.00
75221;BME280;63802;53.232;6.570;2023-09-08T06:51:36;101831.16;;;19.10;100.00
75221;BME280;63802;53.232;6.570;2023-09-08T06:54:02;101825.97;;;19.22;100.00
75221;BME280;63802;53.232;6.570;2023-09-08T06:56:28;101837.84;;;19.37;100.00
75221;BME280;63802;53.232;6.570;2023-09-08T06:58:53;101822.03;;;19.48;100.00
75221;BME280;63802;53.232;6.570;2023-09-08T07:01:19;101827.50;;;19.76;100.00
75221;BME280;63802;53.232;6.570;2023-09-08T07:03:44;101833.41;;;19.85;100.00
75221;BME280;63802;53.232;6.570;2023-09-08T07:06:10;101848.75;;;20.08;100.00
75221;BME280;63802;53.232;6.570;2023-09-08T07:08:35;101834.41;;;20.34;100.00
75221;BME280;63802;53.232;6.570;2023-09-08T07:11:01;101848.94;;;20.52;100.00
75221;BME280;63802;53.232;6.570;2023-09-08T07:13:27;101852.38;;;20.77;100.00
75221;BME280;63802;53.232;6.570;2023-09-08T07:15:52;101850.16;;;21.02;100.00
75221;BME280;63802;53.232;6.570;2023-09-08T07:18:18;101853.66;;;21.17;100.00
75221;BME280;63802;53.232;6.570;2023-09-08T07:20:47;101857.53;;;21.30;100.00
75221;BME280;63802;53.232;6.570;2023-09-08T07:23:18;101855.03;;;21.43;100.00
75221;BME280;63802;53.232;6.570;2023-09-08T07:25:48;101847.38;;;21.54;100.00
75221;BME280;63802;53.232;6.570;2023-09-08T07:28:15;101863.31;;;21.87;100.00
75221;BME280;63802;53.232;6.570;2023-09-08T07:30:40;101849.59;;;22.03;100.00
75221;BME280;63802;53.232;6.570;2023-09-08T07:33:06;101863.41;;;22.10;100.00
75221;BME280;63802;53.232;6.570;2023-09-08T07:35:31;101865.75;;;22.45;100.00
75221;BME280;63802;53.232;6.570;2023-09-08T07:37:57;101860.50;;;22.81;100.00
75221;BME280;63802;53.232;6.570;2023-09-08T07:40:22;101864.44;;;23.07;100.00
75221;BME280;63802;53.232;6.570;2023-09-08T07:42:48;101854.28;;;23.20;100.00
75221;BME280;63802;53.232;6.570;2023-09-08T07:45:14;101862.72;;;23.40;100.00
75221;BME280;63802;53.232;6.570;2023-09-08T07:47:39;101856.47;;;23.32;100.00
75221;BME280;63802;53.232;6.570;2023-09-08T07:50:26;101855.97;;;23.37;100.00
75221;BME280;63802;53.232;6.570;2023-09-08T07:52:53;101866.50;;;23.49;100.00
75221;BME280;63802;53.232;6.570;2023-09-08T07:55:19;101854.75;;;23.61;100.00
75221;BME280;63802;53.232;6.570;2023-09-08T07:57:49;101864.25;;;23.64;100.00
75221;BME280;63802;53.232;6.570;2023-09-08T08:00:15;101858.31;;;23.62;100.00
75221;BME280;63802;53.232;6.570;2023-09-08T08:02:44;101858.97;;;23.69;100.00
75221;BME280;63802;53.232;6.570;2023-09-08T08:05:10;101857.28;;;23.75;100.00
75221;BME280;63802;53.232;6.570;2023-09-08T08:07:35;101863.22;;;23.77;100.00
75221;BME280;63802;53.232;6.570;2023-09-08T08:10:01;101854.47;;;23.95;100.00
75221;BME280;63802;53.232;6.570;2023-09-08T08:12:27;101861.00;;;23.88;100.00
75221;BME280;63802;53.232;6.570;2023-09-08T08:14:52;101861.16;;;24.01;100.00
75221;BME280;63802;53.232;6.570;2023-09-08T08:17:17;101850.53;;;23.92;100.00
75221;BME280;63802;53.232;6.570;2023-09-08T08:19:45;101859.13;;;23.62;100.00
75221;BME280;63802;53.232;6.570;2023-09-08T08:22:10;101847.38;;;23.51;100.00
75221;BME280;63802;53.232;6.570;2023-09-08T08:24:36;101853.69;;;23.55;100.00
75221;BME280;63802;53.232;6.570;2023-09-08T08:27:03;101858.53;;;23.51;100.00
75221;BME280;63802;53.232;6.570;2023-09-08T08:29:29;101857.66;;;23.54;100.00
75221;BME280;63802;53.232;6.570;2023-09-08T08:31:54;101853.09;;;23.44;100.00
75221;BME280;63802;53.232;6.570;2023-09-08T08:34:20;101858.59;;;23.48;100.00
75221;BME280;63802;53.232;6.570;2023-09-08T08:36:45;101856.94;;;23.50;100.00
75221;BME280;63802;53.232;6.570;2023-09-08T08:39:10;101856.03;;;23.57;100.00
75221;BME280;63802;53.232;6.570;2023-09-08T08:41:36;101854.75;;;23.61;100.00
75221;BME280;63802;53.232;6.570;2023-09-08T08:44:06;101855.84;;;23.67;100.00
75221;BME280;63802;53.232;6.570;2023-09-08T08:46:33;101862.88;;;23.75;100.00
75221;BME280;63802;53.232;6.570;2023-09-08T08:49:01;101865.06;;;23.84;100.00
75221;BME280;63802;53.232;6.570;2023-09-08T08:51:28;101863.13;;;23.81;100.00
75221;BME280;63802;53.232;6.570;2023-09-08T08:53:55;101851.19;;;23.80;100.00
75221;BME280;63802;53.232;6.570;2023-09-08T08:56:21;101857.06;;;23.86;100.00
75221;BME280;63802;53.232;6.570;2023-09-08T08:58:48;101848.19;;;23.91;100.00
75221;BME280;63802;53.232;6.570;2023-09-08T09:01:16;101845.84;;;23.89;100.00
75221;BME280;63802;53.232;6.570;2023-09-08T09:03:42;101855.06;;;24.06;100.00
75221;BME280;63802;53.232;6.570;2023-09-08T09:06:10;101828.00;;;24.07;100.00
75221;BME280;63802;53.232;6.570;2023-09-08T09:08:36;101844.94;;;24.16;100.00
75221;BME280;63802;53.232;6.570;2023-09-08T09:11:02;101844.81;;;24.39;100.00
75221;BME280;63802;53.232;6.570;2023-09-08T09:13:27;101845.00;;;24.48;100.00
75221;BME280;63802;53.232;6.570;2023-09-08T09:15:58;101853.16;;;24.58;100.00
75221;BME280;63802;53.232;6.570;2023-09-08T09:18:24;101849.91;;;24.60;100.00
75221;BME280;63802;53.232;6.570;2023-09-08T09:20:53;101848.97;;;24.67;100.00
75221;BME280;63802;53.232;6.570;2023-09-08T09:23:29;101849.56;;;24.74;100.00
75221;BME280;63802;53.232;6.570;2023-09-08T09:25:55;101846.22;;;24.83;100.00
75221;BME280;63802;53.232;6.570;2023-09-08T09:28:20;101848.03;;;25.05;100.00
75221;BME280;63802;53.232;6.570;2023-09-08T09:30:48;101843.16;;;25.09;100.00
75221;BME280;63802;53.232;6.570;2023-09-08T09:33:14;101839.06;;;25.14;100.00
75221;BME280;63802;53.232;6.570;2023-09-08T09:38:10;101843.31;;;25.35;100.00
75221;BME280;63802;53.232;6.570;2023-09-08T09:40:36;101841.91;;;25.43;100.00
75221;BME280;63802;53.232;6.570;2023-09-08T09:43:04;101835.81;;;25.48;100.00
75221;BME280;63802;53.232;6.570;2023-09-08T09:45:30;101841.00;;;25.62;100.00
75221;BME280;63802;53.232;6.570;2023-09-08T09:47:56;101836.75;;;25.70;100.00
75221;BME280;63802;53.232;6.570;2023-09-08T09:50:38;101826.53;;;25.92;100.00
75221;BME280;63802;53.232;6.570;2023-09-08T09:53:15;101833.47;;;26.16;100.00
75221;BME280;63802;53.232;6.570;2023-09-08T09:55:43;101824.19;;;26.44;100.00
75221;BME280;63802;53.232;6.570;2023-09-08T09:58:09;101830.25;;;26.81;100.00
75221;BME280;63802;53.232;6.570;2023-09-08T10:00:39;101821.50;;;27.04;100.00
75221;BME280;63802;53.232;6.570;2023-09-08T10:03:13;101815.75;;;27.54;100.00
75221;BME280;63802;53.232;6.570;2023-09-08T10:05:39;101819.00;;;27.74;98.50
75221;BME280;63802;53.232;6.570;2023-09-08T10:08:04;101816.19;;;27.74;93.74
75221;BME280;63802;53.232;6.570;2023-09-08T10:10:32;101819.00;;;28.27;90.60
75221;BME280;63802;53.232;6.570;2023-09-08T10:13:02;101816.44;;;28.72;85.30
75221;BME280;63802;53.232;6.570;2023-09-08T10:15:29;101808.97;;;28.87;79.49
75221;BME280;63802;53.232;6.570;2023-09-08T10:17:56;101804.97;;;29.43;79.27
75221;BME280;63802;53.232;6.570;2023-09-08T10:20:26;101805.13;;;29.30;75.17
75221;BME280;63802;53.232;6.570;2023-09-08T10:22:56;101806.53;;;29.35;78.10
75221;BME280;63802;53.232;6.570;2023-09-08T10:25:27;101800.47;;;29.36;75.11
75221;BME280;63802;53.232;6.570;2023-09-08T10:27:56;101796.22;;;29.77;71.55
75221;BME280;63802;53.232;6.570;2023-09-08T10:30:22;101798.47;;;30.15;71.72
75221;BME280;63802;53.232;6.570;2023-09-08T10:32:49;101801.09;;;30.27;66.79
75221;BME280;63802;53.232;6.570;2023-09-08T10:35:16;101805.13;;;30.35;69.59
75221;BME280;63802;53.232;6.570;2023-09-08T10:37:43;101792.56;;;30.45;70.36
75221;BME280;63802;53.232;6.570;2023-09-08T10:40:23;101793.28;;;30.88;69.62
75221;BME280;63802;53.232;6.570;2023-09-08T10:42:49;101792.59;;;31.02;63.50
75221;BME280;63802;53.232;6.570;2023-09-08T10:45:17;101790.66;;;31.08;60.15
75221;BME280;63802;53.232;6.570;2023-09-08T10:50:18;101793.81;;;30.77;57.20
75221;BME280;63802;53.232;6.570;2023-09-08T10:52:44;101788.78;;;31.29;59.71
75221;BME280;63802;53.232;6.570;2023-09-08T10:55:11;101796.97;;;31.41;57.59
75221;BME280;63802;53.232;6.570;2023-09-08T10:57:44;101791.84;;;31.16;60.29
75221;BME280;63802;53.232;6.570;2023-09-08T11:00:11;101803.63;;;31.67;59.39
75221;BME280;63802;53.232;6.570;2023-09-08T11:02:48;101804.03;;;31.60;53.58
75221;BME280;63802;53.232;6.570;2023-09-08T11:05:15;101800.28;;;32.22;54.45
75221;BME280;63802;53.232;6.570;2023-09-08T11:07:42;101800.16;;;32.31;53.81
75221;BME280;63802;53.232;6.570;2023-09-08T11:10:08;101806.97;;;32.39;53.67
75221;BME280;63802;53.232;6.570;2023-09-08T11:12:34;101794.72;;;32.62;52.98
75221;BME280;63802;53.232;6.570;2023-09-08T11:15:05;101799.19;;;32.19;50.38
75221;BME280;63802;53.232;6.570;2023-09-08T11:17:32;101805.41;;;31.79;54.15
75221;BME280;63802;53.232;6.570;2023-09-08T11:20:00;101800.56;;;32.24;53.77
75221;BME280;63802;53.232;6.570;2023-09-08T11:22:26;101798.22;;;31.93;55.09
75221;BME280;63802;53.232;6.570;2023-09-08T11:24:53;101791.72;;;32.66;53.20
75221;BME280;63802;53.232;6.570;2023-09-08T11:27:19;101803.09;;;32.91;50.89
75221;BME280;63802;53.232;6.570;2023-09-08T11:29:45;101799.19;;;32.34;48.61
75221;BME280;63802;53.232;6.570;2023-09-08T11:32:12;101788.50;;;32.58;49.18
75221;BME280;63802;53.232;6.570;2023-09-08T11:34:37;101797.44;;;32.22;51.13
75221;BME280;63802;53.232;6.570;2023-09-08T11:37:13;101790.81;;;32.25;50.27
75221;BME280;63802;53.232;6.570;2023-09-08T11:39:39;101788.72;;;32.55;51.70
75221;BME280;63802;53.232;6.570;2023-09-08T11:42:06;101781.38;;;32.63;51.38
75221;BME280;63802;53.232;6.570;2023-09-08T11:44:34;101794.53;;;32.86;50.50
75221;BME280;63802;53.232;6.570;2023-09-08T11:47:06;101787.41;;;32.90;49.07
75221;BME280;63802;53.232;6.570;2023-09-08T11:49:40;101795.25;;;33.01;46.59
75221;BME280;63802;53.232;6.570;2023-09-08T11:52:06;101783.75;;;32.35;50.92
75221;BME280;63802;53.232;6.570;2023-09-08T11:54:35;101790.41;;;32.32;52.22
75221;BME280;63802;53.232;6.570;2023-09-08T11:57:02;101786.72;;;32.26;48.07
75221;BME280;63802;53.232;6.570;2023-09-08T11:59:31;101780.84;;;32.44;48.96
75221;BME280;63802;53.232;6.570;2023-09-08T12:01:57;101776.28;;;32.67;45.99
75221;BME280;63802;53.232;6.570;2023-09-08T12:04:24;101790.97;;;32.51;44.82
75221;BME280;63802;53.232;6.570;2023-09-08T12:06:52;101790.19;;;32.50;46.75
75221;BME280;63802;53.232;6.570;2023-09-08T12:09:18;101786.94;;;32.22;44.96
75221;BME280;63802;53.232;6.570;2023-09-08T12:11:44;101783.56;;;32.53;44.77
75221;BME280;63802;53.232;6.570;2023-09-08T12:14:14;101777.53;;;32.31;46.37
75221;BME280;63802;53.232;6.570;2023-09-08T12:16:40;101783.34;;;32.42;44.93
75221;BME280;63802;53.232;6.570;2023-09-08T12:19:07;101774.66;;;32.60;45.88
75221;BME280;63802;53.232;6.570;2023-09-08T12:21:54;101761.16;;;32.35;44.51
75221;BME280;63802;53.232;6.570;2023-09-08T12:24:20;101767.97;;;32.43;45.38
75221;BME280;63802;53.232;6.570;2023-09-08T12:27:06;101773.66;;;32.14;44.24
75221;BME280;63802;53.232;6.570;2023-09-08T12:29:31;101768.38;;;32.36;45.17
75221;BME280;63802;53.232;6.570;2023-09-08T12:31:56;101775.41;;;31.67;43.89
75221;BME280;63802;53.232;6.570;2023-09-08T12:34:22;101782.13;;;31.70;45.62
75221;BME280;63802;53.232;6.570;2023-09-08T12:36:47;101764.03;;;31.76;45.55
75221;BME280;63802;53.232;6.570;2023-09-08T12:39:13;101774.16;;;31.68;45.14
75221;BME280;63802;53.232;6.570;2023-09-08T12:41:39;101766.66;;;31.65;45.89
75221;BME280;63802;53.232;6.570;2023-09-08T12:44:05;101772.69;;;31.58;44.72
75221;BME280;63802;53.232;6.570;2023-09-08T12:46:30;101769.75;;;31.67;45.50
75221;BME280;63802;53.232;6.570;2023-09-08T12:48:57;101764.09;;;31.97;48.00